sensor_id;sensor_type;location;lat;lon;timestamp;P1;durP1;ratioP1;P2;durP2;ratioP2
68076;SDS011;54866;53.458;14.540;2022-11-18T00:01:56;14.10;;;11.40;;
68076;SDS011;54866;53.458;14.540;2022-11-18T00:04:26;16.10;;;11.50;;
68076;SDS011;54866;53.458;14.540;2022-11-18T00:06:56;13.70;;;11.30;;
68076;SDS011;54866;53.458;14.540;2022-11-18T00:09:25;14.70;;;10.90;;
68076;SDS011;54866;53.458;14.540;2022-11-18T00:11:55;13.40;;;7.90;;
68076;SDS011;54866;53.458;14.540;2022-11-18T00:14:43;16.10;;;11.40;;
68076;SDS011;54866;53.458;14.540;2022-11-18T00:17:13;16.30;;;11.90;;
68076;SDS011;54866;53.458;14.540;2022-11-18T00:19:43;13.60;;;10.40;;
68076;SDS011;54866;53.458;14.540;2022-11-18T00:22:12;17.00;;;12.50;;
68076;SDS011;54866;53.458;14.540;2022-11-18T00:24:42;15.80;;;13.30;;
68076;SDS011;54866;53.458;14.540;2022-11-18T00:27:12;11.50;;;8.30;;
68076;SDS011;54866;53.458;14.540;2022-11-18T00:29:41;16.80;;;15.00;;
68076;SDS011;54866;53.458;14.540;2022-11-18T00:32:11;16.50;;;11.70;;
68076;SDS011;54866;53.458;14.540;2022-11-18T00:34:41;14.30;;;11.10;;
68076;SDS011;54866;53.458;14.540;2022-11-18T00:37:11;13.70;;;9.20;;
68076;SDS011;54866;53.458;14.540;2022-11-18T00:39:40;16.60;;;14.90;;
68076;SDS011;54866;53.458;14.540;2022-11-18T00:42:10;19.30;;;12.60;;
68076;SDS011;54866;53.458;14.540;2022-11-18T00:44:58;18.30;;;16.30;;
68076;SDS011;54866;53.458;14.540;2022-11-18T00:47:27;19.50;;;16.10;;
68076;SDS011;54866;53.458;14.540;2022-11-18T00:49:57;19.50;;;14.30;;
68076;SDS011;54866;53.458;14.540;2022-11-18T00:52:27;17.00;;;14.40;;
68076;SDS011;54866;53.458;14.540;2022-11-18T00:54:57;17.20;;;13.20;;
68076;SDS011;54866;53.458;14.540;2022-11-18T00:57:26;21.00;;;18.90;;
68076;SDS011;54866;53.458;14.540;2022-11-18T00:59:56;21.20;;;15.80;;
68076;SDS011;54866;53.458;14.540;2022-11-18T01:02:26;16.50;;;12.70;;
68076;SDS011;54866;53.458;14.540;2022-11-18T01:04:55;13.20;;;9.30;;
68076;SDS011;54866;53.458;14.540;2022-11-18T01:07:25;16.00;;;12.30;;
68076;SDS011;54866;53.458;14.540;2022-11-18T01:09:55;21.40;;;19.30;;
68076;SDS011;54866;53.458;14.540;2022-11-18T01:12:25;20.60;;;13.70;;
68076;SDS011;54866;53.458;14.540;2022-11-18T01:15:12;22.40;;;19.30;;
68076;SDS011;54866;53.458;14.540;2022-11-18T01:17:42;20.10;;;14.50;;
68076;SDS011;54866;53.458;14.540;2022-11-18T01:20:12;20.00;;;13.60;;
68076;SDS011;54866;53.458;14.540;2022-11-18T01:22:42;22.70;;;17.90;;
68076;SDS011;54866;53.458;14.540;2022-11-18T01:25:12;20.90;;;18.60;;
68076;SDS011;54866;53.458;14.540;2022-11-18T01:27:41;21.80;;;15.70;;
68076;SDS011;54866;53.458;14.540;2022-11-18T01:32:43;21.20;;;16.50;;
68076;SDS011;54866;53.458;14.540;2022-11-18T01:35:13;16.90;;;11.20;;
68076;SDS011;54866;53.458;14.540;2022-11-18T01:37:44;15.70;;;12.60;;
68076;SDS011;54866;53.458;14.540;2022-11-18T01:40:14;18.10;;;15.80;;
68076;SDS011;54866;53.458;14.540;2022-11-18T01:42:43;19.30;;;14.70;;
68076;SDS011;54866;53.458;14.540;2022-11-18T01:45:20;19.00;;;13.80;;
68076;SDS011;54866;53.458;14.540;2022-11-18T01:47:56;18.70;;;13.30;;
68076;SDS011;54866;53.458;14.540;2022-11-18T01:50:33;18.50;;;15.00;;
68076;SDS011;54866;53.458;14.540;2022-11-18T01:53:07;19.70;;;13.80;;
68076;SDS011;54866;53.458;14.540;2022-11-18T01:55:40;20.40;;;14.40;;
68076;SDS011;54866;53.458;14.540;2022-11-18T01:58:16;16.20;;;11.40;;
68076;SDS011;54866;53.458;14.540;2022-11-18T02:00:49;18.30;;;11.90;;
68076;SDS011;54866;53.458;14.540;2022-11-18T02:03:19;10.20;;;8.10;;
68076;SDS011;54866;53.458;14.540;2022-11-18T02:05:50;17.20;;;13.80;;
68076;SDS011;54866;53.458;14.540;2022-11-18T02:08:21;14.40;;;9.10;;
68076;SDS011;54866;53.458;14.540;2022-11-18T02:10:52;11.60;;;7.80;;
68076;SDS011;54866;53.458;14.540;2022-11-18T02:13:21;18.50;;;13.00;;
68076;SDS011;54866;53.458;14.540;2022-11-18T02:15:54;17.40;;;15.20;;
68076;SDS011;54866;53.458;14.540;2022-11-18T02:18:37;18.10;;;10.90;;
68076;SDS011;54866;53.458;14.540;2022-11-18T02:21:18;13.80;;;8.40;;
68076;SDS011;54866;53.458;14.540;2022-11-18T02:24:13;16.50;;;10.80;;
68076;SDS011;54866;53.458;14.540;2022-11-18T02:27:10;20.20;;;13.30;;
68076;SDS011;54866;53.458;14.540;2022-11-18T02:29:58;17.10;;;12.70;;
68076;SDS011;54866;53.458;14.540;2022-11-18T02:32:35;13.20;;;8.90;;
68076;SDS011;54866;53.458;14.540;2022-11-18T02:35:12;14.60;;;11.10;;
68076;SDS011;54866;53.458;14.540;2022-11-18T02:37:46;12.70;;;7.60;;
68076;SDS011;54866;53.458;14.540;2022-11-18T02:42:49;19.00;;;14.40;;
68076;SDS011;54866;53.458;14.540;2022-11-18T02:45:23;14.30;;;7.70;;
68076;SDS011;54866;53.458;14.540;2022-11-18T02:47:54;18.50;;;12.90;;
68076;SDS011;54866;53.458;14.540;2022-11-18T02:50:28;16.00;;;10.40;;
68076;SDS011;54866;53.458;14.540;2022-11-18T02:53:00;18.80;;;14.30;;
68076;SDS011;54866;53.458;14.540;2022-11-18T02:55:34;19.40;;;11.60;;
68076;SDS011;54866;53.458;14.540;2022-11-18T02:58:06;17.80;;;10.30;;
68076;SDS011;54866;53.458;14.540;2022-11-18T03:00:38;12.20;;;8.10;;
68076;SDS011;54866;53.458;14.540;2022-11-18T03:03:22;17.10;;;8.90;;
68076;SDS011;54866;53.458;14.540;2022-11-18T03:05:56;17.00;;;10.20;;
68076;SDS011;54866;53.458;14.540;2022-11-18T03:08:34;16.90;;;8.80;;
68076;SDS011;54866;53.458;14.540;2022-11-18T03:11:11;18.80;;;11.30;;
68076;SDS011;54866;53.458;14.540;2022-11-18T03:13:50;20.30;;;12.50;;
68076;SDS011;54866;53.458;14.540;2022-11-18T03:16:31;20.60;;;13.00;;
68076;SDS011;54866;53.458;14.540;2022-11-18T03:19:06;17.60;;;9.60;;
68076;SDS011;54866;53.458;14.540;2022-11-18T03:21:46;17.90;;;11.10;;
68076;SDS011;54866;53.458;14.540;2022-11-18T03:24:28;18.60;;;10.90;;
68076;SDS011;54866;53.458;14.540;2022-11-18T03:27:01;22.90;;;13.60;;
68076;SDS011;54866;53.458;14.540;2022-11-18T03:29:39;17.60;;;10.30;;
68076;SDS011;54866;53.458;14.540;2022-11-18T03:32:15;20.40;;;10.70;;
68076;SDS011;54866;53.458;14.540;2022-11-18T03:34:50;14.70;;;9.60;;
68076;SDS011;54866;53.458;14.540;2022-11-18T03:37:24;17.00;;;10.80;;
68076;SDS011;54866;53.458;14.540;2022-11-18T03:39:56;18.50;;;13.00;;
68076;SDS011;54866;53.458;14.540;2022-11-18T03:42:31;22.80;;;16.00;;
68076;SDS011;54866;53.458;14.540;2022-11-18T03:45:08;23.30;;;14.40;;
68076;SDS011;54866;53.458;14.540;2022-11-18T03:47:42;17.40;;;12.00;;
68076;SDS011;54866;53.458;14.540;2022-11-18T03:50:17;14.20;;;9.30;;
68076;SDS011;54866;53.458;14.540;2022-11-18T03:52:50;17.80;;;11.80;;
68076;SDS011;54866;53.458;14.540;2022-11-18T03:55:22;12.70;;;8.60;;
68076;SDS011;54866;53.458;14.540;2022-11-18T03:57:54;17.30;;;11.80;;
68076;SDS011;54866;53.458;14.540;2022-11-18T04:00:28;11.10;;;7.50;;
68076;SDS011;54866;53.458;14.540;2022-11-18T04:03:01;17.60;;;10.60;;
68076;SDS011;54866;53.458;14.540;2022-11-18T04:05:31;12.90;;;8.10;;
68076;SDS011;54866;53.458;14.540;2022-11-18T04:08:06;13.50;;;8.30;;
68076;SDS011;54866;53.458;14.540;2022-11-18T04:10:41;14.20;;;9.60;;
68076;SDS011;54866;53.458;14.540;2022-11-18T04:13:19;15.50;;;9.70;;
68076;SDS011;54866;53.458;14.540;2022-11-18T04:15:52;13.60;;;9.20;;
68076;SDS011;54866;53.458;14.540;2022-11-18T04:18:22;18.70;;;11.30;;
68076;SDS011;54866;53.458;14.540;2022-11-18T04:20:51;18.80;;;11.20;;
68076;SDS011;54866;53.458;14.540;2022-11-18T04:23:21;12.90;;;9.40;;
68076;SDS011;54866;53.458;14.540;2022-11-18T04:25:51;17.60;;;9.60;;
68076;SDS011;54866;53.458;14.540;2022-11-18T04:28:21;19.20;;;11.80;;
68076;SDS011;54866;53.458;14.540;2022-11-18T04:30:50;22.10;;;12.60;;
68076;SDS011;54866;53.458;14.540;2022-11-18T04:33:20;16.30;;;9.50;;
68076;SDS011;54866;53.458;14.540;2022-11-18T04:35:50;10.90;;;7.80;;
68076;SDS011;54866;53.458;14.540;2022-11-18T04:38:19;16.10;;;10.50;;
68076;SDS011;54866;53.458;14.540;2022-11-18T04:40:49;16.20;;;10.40;;
68076;SDS011;54866;53.458;14.540;2022-11-18T04:43:19;16.10;;;9.70;;
68076;SDS011;54866;53.458;14.540;2022-11-18T04:45:48;21.30;;;11.20;;
68076;SDS011;54866;53.458;14.540;2022-11-18T04:48:18;15.30;;;8.30;;
68076;SDS011;54866;53.458;14.540;2022-11-18T04:50:49;18.00;;;11.00;;
68076;SDS011;54866;53.458;14.540;2022-11-18T04:53:18;22.00;;;12.00;;
68076;SDS011;54866;53.458;14.540;2022-11-18T04:55:48;15.80;;;9.90;;
68076;SDS011;54866;53.458;14.540;2022-11-18T04:58:18;17.10;;;11.20;;
68076;SDS011;54866;53.458;14.540;2022-11-18T05:00:48;18.30;;;10.90;;
68076;SDS011;54866;53.458;14.540;2022-11-18T05:03:18;15.10;;;10.10;;
68076;SDS011;54866;53.458;14.540;2022-11-18T05:05:48;19.90;;;10.40;;
68076;SDS011;54866;53.458;14.540;2022-11-18T05:08:18;16.70;;;10.00;;
68076;SDS011;54866;53.458;14.540;2022-11-18T05:10:47;15.80;;;9.20;;
68076;SDS011;54866;53.458;14.540;2022-11-18T05:13:37;18.80;;;13.70;;
68076;SDS011;54866;53.458;14.540;2022-11-18T05:16:07;21.00;;;12.90;;
68076;SDS011;54866;53.458;14.540;2022-11-18T05:18:37;18.60;;;13.00;;
68076;SDS011;54866;53.458;14.540;2022-11-18T05:21:06;15.80;;;9.10;;
68076;SDS011;54866;53.458;14.540;2022-11-18T05:23:36;18.00;;;11.60;;
68076;SDS011;54866;53.458;14.540;2022-11-18T05:26:06;17.10;;;10.70;;
68076;SDS011;54866;53.458;14.540;2022-11-18T05:28:37;13.00;;;8.30;;
68076;SDS011;54866;53.458;14.540;2022-11-18T05:31:08;15.10;;;8.70;;
68076;SDS011;54866;53.458;14.540;2022-11-18T05:33:39;15.00;;;10.30;;
68076;SDS011;54866;53.458;14.540;2022-11-18T05:36:11;13.30;;;10.30;;
68076;SDS011;54866;53.458;14.540;2022-11-18T05:38:42;18.70;;;11.10;;
68076;SDS011;54866;53.458;14.540;2022-11-18T05:41:11;13.50;;;8.40;;
68076;SDS011;54866;53.458;14.540;2022-11-18T05:44:02;14.30;;;8.40;;
68076;SDS011;54866;53.458;14.540;2022-11-18T05:46:32;15.20;;;10.10;;
68076;SDS011;54866;53.458;14.540;2022-11-18T05:49:02;10.90;;;6.70;;
68076;SDS011;54866;53.458;14.540;2022-11-18T05:51:33;15.50;;;10.00;;
68076;SDS011;54866;53.458;14.540;2022-11-18T05:54:03;16.00;;;9.00;;
68076;SDS011;54866;53.458;14.540;2022-11-18T05:56:35;16.90;;;10.00;;
68076;SDS011;54866;53.458;14.540;2022-11-18T05:59:06;15.20;;;8.30;;
68076;SDS011;54866;53.458;14.540;2022-11-18T06:01:37;14.10;;;8.70;;
68076;SDS011;54866;53.458;14.540;2022-11-18T06:04:13;15.20;;;10.30;;
68076;SDS011;54866;53.458;14.540;2022-11-18T06:06:46;13.50;;;7.70;;
68076;SDS011;54866;53.458;14.540;2022-11-18T06:09:21;17.20;;;11.20;;
68076;SDS011;54866;53.458;14.540;2022-11-18T06:11:55;12.30;;;8.40;;
68076;SDS011;54866;53.458;14.540;2022-11-18T06:14:27;9.70;;;5.50;;
68076;SDS011;54866;53.458;14.540;2022-11-18T06:17:01;7.90;;;5.00;;
68076;SDS011;54866;53.458;14.540;2022-11-18T06:19:36;12.20;;;7.90;;
68076;SDS011;54866;53.458;14.540;2022-11-18T06:22:06;11.60;;;6.30;;
68076;SDS011;54866;53.458;14.540;2022-11-18T06:24:37;10.00;;;6.00;;
68076;SDS011;54866;53.458;14.540;2022-11-18T06:27:08;12.20;;;7.50;;
68076;SDS011;54866;53.458;14.540;2022-11-18T06:29:39;9.30;;;6.90;;
68076;SDS011;54866;53.458;14.540;2022-11-18T06:32:08;10.40;;;7.70;;
68076;SDS011;54866;53.458;14.540;2022-11-18T06:34:38;10.80;;;6.00;;
68076;SDS011;54866;53.458;14.540;2022-11-18T06:37:15;9.40;;;6.60;;
68076;SDS011;54866;53.458;14.540;2022-11-18T06:39:46;10.20;;;6.90;;
68076;SDS011;54866;53.458;14.540;2022-11-18T06:42:16;7.90;;;5.80;;
68076;SDS011;54866;53.458;14.540;2022-11-18T06:44:59;7.90;;;5.20;;
68076;SDS011;54866;53.458;14.540;2022-11-18T06:47:29;6.50;;;5.40;;
68076;SDS011;54866;53.458;14.540;2022-11-18T06:49:59;7.50;;;4.10;;
68076;SDS011;54866;53.458;14.540;2022-11-18T06:52:29;6.70;;;3.90;;
68076;SDS011;54866;53.458;14.540;2022-11-18T06:54:59;8.00;;;3.70;;
68076;SDS011;54866;53.458;14.540;2022-11-18T06:57:31;7.50;;;4.00;;
68076;SDS011;54866;53.458;14.540;2022-11-18T07:00:02;4.80;;;3.30;;
68076;SDS011;54866;53.458;14.540;2022-11-18T07:02:35;4.50;;;3.20;;
68076;SDS011;54866;53.458;14.540;2022-11-18T07:05:06;4.10;;;2.90;;
68076;SDS011;54866;53.458;14.540;2022-11-18T07:07:36;5.20;;;3.00;;
68076;SDS011;54866;53.458;14.540;2022-11-18T07:10:06;4.70;;;3.50;;
68076;SDS011;54866;53.458;14.540;2022-11-18T07:12:37;5.70;;;3.50;;
68076;SDS011;54866;53.458;14.540;2022-11-18T07:15:07;4.60;;;2.90;;
68076;SDS011;54866;53.458;14.540;2022-11-18T07:17:37;5.20;;;3.00;;
68076;SDS011;54866;53.458;14.540;2022-11-18T07:20:08;4.40;;;2.90;;
68076;SDS011;54866;53.458;14.540;2022-11-18T07:22:38;3.60;;;2.00;;
68076;SDS011;54866;53.458;14.540;2022-11-18T07:25:08;4.40;;;2.20;;
68076;SDS011;54866;53.458;14.540;2022-11-18T07:27:38;3.90;;;2.60;;
68076;SDS011;54866;53.458;14.540;2022-11-18T07:30:08;4.70;;;2.10;;
68076;SDS011;54866;53.458;14.540;2022-11-18T07:32:39;4.00;;;2.50;;
68076;SDS011;54866;53.458;14.540;2022-11-18T07:35:09;3.40;;;2.40;;
68076;SDS011;54866;53.458;14.540;2022-11-18T07:37:39;3.10;;;2.00;;
68076;SDS011;54866;53.458;14.540;2022-11-18T07:40:09;3.00;;;1.90;;
68076;SDS011;54866;53.458;14.540;2022-11-18T07:42:41;3.30;;;2.00;;
68076;SDS011;54866;53.458;14.540;2022-11-18T07:45:11;3.10;;;2.10;;
68076;SDS011;54866;53.458;14.540;2022-11-18T07:47:40;3.60;;;2.20;;
68076;SDS011;54866;53.458;14.540;2022-11-18T07:50:10;2.70;;;2.10;;
68076;SDS011;54866;53.458;14.540;2022-11-18T07:52:40;3.20;;;2.00;;
68076;SDS011;54866;53.458;14.540;2022-11-18T07:55:10;4.80;;;2.70;;
68076;SDS011;54866;53.458;14.540;2022-11-18T07:57:40;3.20;;;2.60;;
68076;SDS011;54866;53.458;14.540;2022-11-18T08:00:10;3.10;;;2.10;;
68076;SDS011;54866;53.458;14.540;2022-11-18T08:02:41;2.90;;;2.00;;
68076;SDS011;54866;53.458;14.540;2022-11-18T08:05:11;2.90;;;1.70;;
68076;SDS011;54866;53.458;14.540;2022-11-18T08:07:40;3.00;;;2.10;;
68076;SDS011;54866;53.458;14.540;2022-11-18T08:10:10;2.80;;;1.90;;
68076;SDS011;54866;53.458;14.540;2022-11-18T08:12:40;2.90;;;1.70;;
68076;SDS011;54866;53.458;14.540;2022-11-18T08:15:10;2.70;;;1.60;;
68076;SDS011;54866;53.458;14.540;2022-11-18T08:17:40;3.10;;;2.40;;
68076;SDS011;54866;53.458;14.540;2022-11-18T08:20:11;2.70;;;1.90;;
68076;SDS011;54866;53.458;14.540;2022-11-18T08:22:40;3.10;;;2.20;;
68076;SDS011;54866;53.458;14.540;2022-11-18T08:25:10;2.50;;;2.00;;
68076;SDS011;54866;53.458;14.540;2022-11-18T08:27:40;3.00;;;2.10;;
68076;SDS011;54866;53.458;14.540;2022-11-18T08:30:11;2.70;;;2.00;;
68076;SDS011;54866;53.458;14.540;2022-11-18T08:32:41;2.40;;;2.00;;
68076;SDS011;54866;53.458;14.540;2022-11-18T08:35:11;3.10;;;2.10;;
68076;SDS011;54866;53.458;14.540;2022-11-18T08:37:41;2.90;;;2.10;;
68076;SDS011;54866;53.458;14.540;2022-11-18T08:40:11;3.20;;;2.20;;
68076;SDS011;54866;53.458;14.540;2022-11-18T08:42:41;3.30;;;2.50;;
68076;SDS011;54866;53.458;14.540;2022-11-18T08:45:11;3.50;;;2.50;;
68076;SDS011;54866;53.458;14.540;2022-11-18T08:47:41;4.30;;;3.50;;
68076;SDS011;54866;53.458;14.540;2022-11-18T08:50:10;3.20;;;2.90;;
68076;SDS011;54866;53.458;14.540;2022-11-18T08:52:40;3.40;;;2.80;;
68076;SDS011;54866;53.458;14.540;2022-11-18T08:55:10;3.50;;;2.80;;
68076;SDS011;54866;53.458;14.540;2022-11-18T08:57:39;3.00;;;2.20;;
68076;SDS011;54866;53.458;14.540;2022-11-18T09:00:10;2.90;;;2.10;;
68076;SDS011;54866;53.458;14.540;2022-11-18T09:02:41;3.10;;;1.70;;
68076;SDS011;54866;53.458;14.540;2022-11-18T09:05:11;3.00;;;2.10;;
68076;SDS011;54866;53.458;14.540;2022-11-18T09:07:41;2.90;;;1.90;;
68076;SDS011;54866;53.458;14.540;2022-11-18T09:10:11;3.20;;;2.40;;
68076;SDS011;54866;53.458;14.540;2022-11-18T09:12:41;2.90;;;2.20;;
68076;SDS011;54866;53.458;14.540;2022-11-18T09:15:11;5.20;;;2.00;;
68076;SDS011;54866;53.458;14.540;2022-11-18T09:17:40;3.50;;;2.00;;
68076;SDS011;54866;53.458;14.540;2022-11-18T09:20:10;3.40;;;2.00;;
68076;SDS011;54866;53.458;14.540;2022-11-18T09:22:40;3.60;;;2.30;;
68076;SDS011;54866;53.458;14.540;2022-11-18T09:25:10;3.50;;;2.10;;
68076;SDS011;54866;53.458;14.540;2022-11-18T09:27:39;3.70;;;2.40;;
68076;SDS011;54866;53.458;14.540;2022-11-18T09:30:10;2.60;;;2.20;;
68076;SDS011;54866;53.458;14.540;2022-11-18T09:32:40;3.40;;;2.30;;
68076;SDS011;54866;53.458;14.540;2022-11-18T09:35:10;3.40;;;2.10;;
68076;SDS011;54866;53.458;14.540;2022-11-18T09:37:40;3.30;;;1.80;;
68076;SDS011;54866;53.458;14.540;2022-11-18T09:40:13;2.80;;;2.10;;
68076;SDS011;54866;53.458;14.540;2022-11-18T09:42:48;2.40;;;1.70;;
68076;SDS011;54866;53.458;14.540;2022-11-18T09:45:29;2.90;;;2.10;;
68076;SDS011;54866;53.458;14.540;2022-11-18T09:48:10;3.90;;;1.70;;
68076;SDS011;54866;53.458;14.540;2022-11-18T09:50:44;3.40;;;1.60;;
68076;SDS011;54866;53.458;14.540;2022-11-18T09:53:16;3.30;;;1.60;;
68076;SDS011;54866;53.458;14.540;2022-11-18T09:55:49;2.90;;;2.10;;
68076;SDS011;54866;53.458;14.540;2022-11-18T09:58:21;2.90;;;2.00;;
68076;SDS011;54866;53.458;14.540;2022-11-18T10:00:59;2.70;;;2.10;;
68076;SDS011;54866;53.458;14.540;2022-11-18T10:03:31;3.00;;;1.90;;
68076;SDS011;54866;53.458;14.540;2022-11-18T10:06:04;2.40;;;1.60;;
68076;SDS011;54866;53.458;14.540;2022-11-18T10:08:47;3.00;;;2.00;;
68076;SDS011;54866;53.458;14.540;2022-11-18T10:11:27;2.80;;;1.70;;
68076;SDS011;54866;53.458;14.540;2022-11-18T10:14:04;3.00;;;1.90;;
68076;SDS011;54866;53.458;14.540;2022-11-18T10:16:47;3.30;;;1.80;;
68076;SDS011;54866;53.458;14.540;2022-11-18T10:19:25;2.60;;;1.70;;
68076;SDS011;54866;53.458;14.540;2022-11-18T10:22:11;3.50;;;2.20;;
68076;SDS011;54866;53.458;14.540;2022-11-18T10:24:48;3.70;;;2.00;;
68076;SDS011;54866;53.458;14.540;2022-11-18T10:27:19;3.20;;;2.40;;
68076;SDS011;54866;53.458;14.540;2022-11-18T10:29:50;3.50;;;2.40;;
68076;SDS011;54866;53.458;14.540;2022-11-18T10:32:22;3.50;;;2.30;;
68076;SDS011;54866;53.458;14.540;2022-11-18T10:34:53;3.50;;;2.10;;
68076;SDS011;54866;53.458;14.540;2022-11-18T10:37:25;3.20;;;2.40;;
68076;SDS011;54866;53.458;14.540;2022-11-18T10:39:57;2.70;;;1.80;;
68076;SDS011;54866;53.458;14.540;2022-11-18T10:42:29;2.60;;;1.80;;
68076;SDS011;54866;53.458;14.540;2022-11-18T10:45:16;3.00;;;2.00;;
68076;SDS011;54866;53.458;14.540;2022-11-18T10:47:56;3.20;;;1.90;;
68076;SDS011;54866;53.458;14.540;2022-11-18T10:50:32;5.60;;;2.00;;
68076;SDS011;54866;53.458;14.540;2022-11-18T10:53:04;2.70;;;1.60;;
68076;SDS011;54866;53.458;14.540;2022-11-18T10:55:52;2.40;;;1.60;;
68076;SDS011;54866;53.458;14.540;2022-11-18T10:58:27;3.10;;;1.70;;
68076;SDS011;54866;53.458;14.540;2022-11-18T11:01:05;2.80;;;1.80;;
68076;SDS011;54866;53.458;14.540;2022-11-18T11:03:40;2.70;;;1.90;;
68076;SDS011;54866;53.458;14.540;2022-11-18T11:06:35;2.30;;;1.50;;
68076;SDS011;54866;53.458;14.540;2022-11-18T11:09:06;2.90;;;1.60;;
68076;SDS011;54866;53.458;14.540;2022-11-18T11:11:37;3.00;;;1.50;;
68076;SDS011;54866;53.458;14.540;2022-11-18T11:14:22;2.30;;;1.40;;
68076;SDS011;54866;53.458;14.540;2022-11-18T11:16:56;2.60;;;1.70;;
68076;SDS011;54866;53.458;14.540;2022-11-18T11:19:33;3.40;;;1.70;;
68076;SDS011;54866;53.458;14.540;2022-11-18T11:22:11;2.90;;;1.60;;
68076;SDS011;54866;53.458;14.540;2022-11-18T11:24:41;2.40;;;1.60;;
68076;SDS011;54866;53.458;14.540;2022-11-18T11:30:14;2.90;;;1.50;;
68076;SDS011;54866;53.458;14.540;2022-11-18T11:32:59;2.00;;;1.00;;
68076;SDS011;54866;53.458;14.540;2022-11-18T11:35:40;2.70;;;1.90;;
68076;SDS011;54866;53.458;14.540;2022-11-18T11:38:15;3.20;;;1.70;;
68076;SDS011;54866;53.458;14.540;2022-11-18T11:40:56;3.00;;;1.40;;
68076;SDS011;54866;53.458;14.540;2022-11-18T11:43:36;2.20;;;1.50;;
68076;SDS011;54866;53.458;14.540;2022-11-18T11:46:27;3.10;;;1.50;;
68076;SDS011;54866;53.458;14.540;2022-11-18T11:49:09;2.20;;;1.40;;
68076;SDS011;54866;53.458;14.540;2022-11-18T11:51:46;3.00;;;1.40;;
68076;SDS011;54866;53.458;14.540;2022-11-18T11:57:12;2.70;;;1.40;;
68076;SDS011;54866;53.458;14.540;2022-11-18T11:59:50;2.60;;;1.40;;
68076;SDS011;54866;53.458;14.540;2022-11-18T12:02:32;5.00;;;1.90;;
68076;SDS011;54866;53.458;14.540;2022-11-18T12:05:21;2.50;;;1.00;;
68076;SDS011;54866;53.458;14.540;2022-11-18T12:07:56;2.60;;;1.10;;
68076;SDS011;54866;53.458;14.540;2022-11-18T12:10:31;2.30;;;1.50;;
68076;SDS011;54866;53.458;14.540;2022-11-18T12:13:30;2.30;;;1.50;;
68076;SDS011;54866;53.458;14.540;2022-11-18T12:16:17;2.40;;;1.40;;
68076;SDS011;54866;53.458;14.540;2022-11-18T12:18:57;2.10;;;1.30;;
68076;SDS011;54866;53.458;14.540;2022-11-18T12:24:27;2.80;;;1.60;;
68076;SDS011;54866;53.458;14.540;2022-11-18T12:27:03;1.90;;;1.10;;
68076;SDS011;54866;53.458;14.540;2022-11-18T12:29:54;2.70;;;1.50;;
68076;SDS011;54866;53.458;14.540;2022-11-18T12:32:27;2.60;;;1.30;;
68076;SDS011;54866;53.458;14.540;2022-11-18T12:35:03;3.50;;;1.90;;
68076;SDS011;54866;53.458;14.540;2022-11-18T12:37:59;2.80;;;1.40;;
68076;SDS011;54866;53.458;14.540;2022-11-18T12:40:34;3.70;;;1.90;;
68076;SDS011;54866;53.458;14.540;2022-11-18T12:52:46;2.70;;;1.50;;
68076;SDS011;54866;53.458;14.540;2022-11-18T12:55:25;2.60;;;1.60;;
68076;SDS011;54866;53.458;14.540;2022-11-18T12:58:00;2.60;;;1.70;;
68076;SDS011;54866;53.458;14.540;2022-11-18T13:00:31;3.40;;;1.60;;
68076;SDS011;54866;53.458;14.540;2022-11-18T13:03:27;3.90;;;1.70;;
68076;SDS011;54866;53.458;14.540;2022-11-18T13:06:05;3.30;;;1.60;;
68076;SDS011;54866;53.458;14.540;2022-11-18T13:08:42;3.70;;;1.80;;
68076;SDS011;54866;53.458;14.540;2022-11-18T13:11:17;3.10;;;1.50;;
68076;SDS011;54866;53.458;14.540;2022-11-18T13:14:11;3.20;;;1.50;;
68076;SDS011;54866;53.458;14.540;2022-11-18T13:17:02;2.70;;;1.50;;
68076;SDS011;54866;53.458;14.540;2022-11-18T13:20:17;3.00;;;1.30;;
68076;SDS011;54866;53.458;14.540;2022-11-18T13:22:51;3.30;;;1.80;;
68076;SDS011;54866;53.458;14.540;2022-11-18T13:25:40;3.00;;;2.20;;
68076;SDS011;54866;53.458;14.540;2022-11-18T13:28:15;3.50;;;1.80;;
68076;SDS011;54866;53.458;14.540;2022-11-18T13:30:51;3.80;;;1.70;;
68076;SDS011;54866;53.458;14.540;2022-11-18T13:33:26;2.50;;;1.40;;
68076;SDS011;54866;53.458;14.540;2022-11-18T13:35:56;2.80;;;1.50;;
68076;SDS011;54866;53.458;14.540;2022-11-18T13:38:27;3.30;;;1.60;;
68076;SDS011;54866;53.458;14.540;2022-11-18T13:40:56;2.70;;;1.60;;
68076;SDS011;54866;53.458;14.540;2022-11-18T13:43:34;2.30;;;1.40;;
68076;SDS011;54866;53.458;14.540;2022-11-18T13:46:04;2.60;;;1.60;;
68076;SDS011;54866;53.458;14.540;2022-11-18T13:48:38;3.20;;;1.80;;
68076;SDS011;54866;53.458;14.540;2022-11-18T13:51:12;3.40;;;2.20;;
68076;SDS011;54866;53.458;14.540;2022-11-18T13:53:42;2.60;;;1.70;;
68076;SDS011;54866;53.458;14.540;2022-11-18T13:56:16;3.10;;;1.90;;
68076;SDS011;54866;53.458;14.540;2022-11-18T13:58:52;3.10;;;1.80;;
68076;SDS011;54866;53.458;14.540;2022-11-18T14:01:24;3.80;;;1.70;;
68076;SDS011;54866;53.458;14.540;2022-11-18T14:03:57;3.00;;;1.80;;
68076;SDS011;54866;53.458;14.540;2022-11-18T14:06:29;4.00;;;1.80;;
68076;SDS011;54866;53.458;14.540;2022-11-18T14:09:14;3.30;;;2.10;;
68076;SDS011;54866;53.458;14.540;2022-11-18T14:11:57;3.50;;;1.80;;
68076;SDS011;54866;53.458;14.540;2022-11-18T14:14:32;4.00;;;2.60;;
68076;SDS011;54866;53.458;14.540;2022-11-18T14:17:11;5.00;;;2.50;;
68076;SDS011;54866;53.458;14.540;2022-11-18T14:19:45;5.40;;;2.90;;
68076;SDS011;54866;53.458;14.540;2022-11-18T14:22:16;5.40;;;3.20;;
68076;SDS011;54866;53.458;14.540;2022-11-18T14:24:54;5.90;;;3.50;;
68076;SDS011;54866;53.458;14.540;2022-11-18T14:30:34;6.90;;;4.40;;
68076;SDS011;54866;53.458;14.540;2022-11-18T14:33:12;9.00;;;5.20;;
68076;SDS011;54866;53.458;14.540;2022-11-18T14:35:43;6.60;;;3.80;;
68076;SDS011;54866;53.458;14.540;2022-11-18T14:38:18;8.90;;;3.60;;
68076;SDS011;54866;53.458;14.540;2022-11-18T14:40:54;10.10;;;4.50;;
68076;SDS011;54866;53.458;14.540;2022-11-18T14:43:25;8.30;;;4.00;;
68076;SDS011;54866;53.458;14.540;2022-11-18T14:45:56;8.70;;;3.80;;
68076;SDS011;54866;53.458;14.540;2022-11-18T14:48:27;8.30;;;3.60;;
68076;SDS011;54866;53.458;14.540;2022-11-18T14:50:59;6.40;;;3.90;;
68076;SDS011;54866;53.458;14.540;2022-11-18T14:53:28;6.30;;;4.30;;
68076;SDS011;54866;53.458;14.540;2022-11-18T14:55:58;7.80;;;3.70;;
68076;SDS011;54866;53.458;14.540;2022-11-18T14:58:29;6.70;;;3.80;;
68076;SDS011;54866;53.458;14.540;2022-11-18T15:00:59;5.10;;;3.10;;
68076;SDS011;54866;53.458;14.540;2022-11-18T15:03:29;6.20;;;3.20;;
68076;SDS011;54866;53.458;14.540;2022-11-18T15:05:59;9.20;;;2.90;;
68076;SDS011;54866;53.458;14.540;2022-11-18T15:08:29;8.40;;;3.60;;
68076;SDS011;54866;53.458;14.540;2022-11-18T15:10:59;23.50;;;5.40;;
68076;SDS011;54866;53.458;14.540;2022-11-18T15:13:29;11.70;;;3.60;;
68076;SDS011;54866;53.458;14.540;2022-11-18T15:15:59;10.50;;;5.50;;
68076;SDS011;54866;53.458;14.540;2022-11-18T15:18:37;13.90;;;4.20;;
68076;SDS011;54866;53.458;14.540;2022-11-18T15:21:07;13.60;;;5.30;;
68076;SDS011;54866;53.458;14.540;2022-11-18T15:23:37;11.00;;;5.20;;
68076;SDS011;54866;53.458;14.540;2022-11-18T15:26:16;11.10;;;5.20;;
68076;SDS011;54866;53.458;14.540;2022-11-18T15:28:47;12.50;;;6.40;;
68076;SDS011;54866;53.458;14.540;2022-11-18T15:31:19;12.50;;;5.50;;